Time;durP1;ratioP1;P1;durP2;ratioP2;P2;SDS_P1;SDS_P2;PMS_P1;PMS_P2;Temp;Humidity;BMP_temperature;BMP_pressure;BME280_temperature;BME280_humidity;BME280_pressure;Samples;Min_cycle;Max_cycle;Signal;HPM_P1;HPM_P2
2023/08/17 00:02:15;;;;;;;3.40;1.60;;;18.40;99.90;;;19.21;100.00;98297.88;5073622;28;20476;-77
2023/08/17 00:04:45;;;;;;;4.13;1.73;;;18.30;99.90;;;19.20;100.00;98304.19;5072541;28;20838;-77
2023/08/17 00:07:15;;;;;;;2.87;1.90;;;18.30;99.90;;;19.19;100.00;98303.41;5071169;28;20472;-77
2023/08/17 00:09:47;;;;;;;3.60;1.77;;;18.30;99.90;;;19.15;100.00;98304.13;5074575;28;20459;-77
2023/08/17 00:12:18;;;;;;;5.97;3.00;;;18.30;99.90;;;19.18;100.00;98309.75;5073589;28;20538;-77
2023/08/17 00:14:48;;;;;;;6.40;1.77;;;18.30;99.90;;;19.11;100.00;98303.78;5074823;28;20463;-77
2023/08/17 00:17:18;;;;;;;6.90;1.80;;;18.10;99.90;;;19.04;100.00;98295.16;5079488;28;20455;-77
2023/08/17 00:19:48;;;;;;;2.40;2.13;;;18.10;99.90;;;19.00;100.00;98301.97;5074434;28;20472;-77
2023/08/17 00:22:19;;;;;;;3.50;2.07;;;18.10;99.90;;;18.99;100.00;98308.28;5075462;28;20462;-77
2023/08/17 00:24:50;;;;;;;3.33;1.80;;;18.10;99.90;;;18.97;100.00;98307.72;5074315;28;21040;-79
2023/08/17 00:27:19;;;;;;;10.23;2.03;;;18.10;99.90;;;18.94;100.00;98311.66;5075715;28;20474;-78
2023/08/17 00:29:48;;;;;;;3.43;2.03;;;18.10;99.90;;;18.89;100.00;98308.09;5074110;28;20463;-77
2023/08/17 00:32:19;;;;;;;15.33;1.80;;;18.10;99.90;;;18.85;100.00;98301.63;5075117;28;20472;-78
2023/08/17 00:34:50;;;;;;;14.73;2.10;;;18.10;99.90;;;18.86;100.00;98312.03;5074385;28;20817;-77
2023/08/17 00:37:20;;;;;;;4.73;2.40;;;18.00;99.90;;;18.81;100.00;98308.47;5074368;28;20459;-78
2023/08/17 00:39:52;;;;;;;12.80;2.67;;;18.00;99.90;;;18.79;100.00;98307.88;5075744;28;20569;-78
2023/08/17 00:42:23;;;;;;;3.50;1.90;;;17.90;99.90;;;18.81;100.00;98303.94;5078054;28;20459;-77
2023/08/17 00:44:53;;;;;;;4.80;1.93;;;17.80;99.90;;;18.76;100.00;98305.69;5075526;28;20539;-78
2023/08/17 00:47:23;;;;;;;4.90;1.80;;;17.90;99.90;;;18.72;100.00;98308.00;5076454;28;20467;-77
2023/08/17 00:49:54;;;;;;;10.43;2.33;;;17.90;99.90;;;18.73;100.00;98303.50;5075431;28;20460;-78
2023/08/17 00:52:25;;;;;;;7.60;2.50;;;17.90;99.90;;;18.68;100.00;98309.50;5080173;28;20463;-78
2023/08/17 00:54:58;;;;;;;6.93;2.40;;;18.00;99.90;;;18.65;100.00;98311.81;5077704;28;20586;-78
2023/08/17 00:57:31;;;;;;;4.33;1.73;;;18.00;99.90;;;18.51;100.00;98311.25;5076103;28;20961;-77
2023/08/17 01:00:04;;;;;;;6.30;2.33;;;18.00;99.90;;;18.37;100.00;98307.19;5077672;28;21020;-77
2023/08/17 01:02:35;;;;;;;1.90;1.70;;;17.90;99.90;;;18.37;100.00;98310.63;5076175;28;20482;-77
2023/08/17 01:05:07;;;;;;;3.40;2.00;;;17.70;99.90;;;18.43;100.00;98304.41;5077212;28;20459;-77
2023/08/17 01:07:37;;;;;;;3.13;1.47;;;17.60;99.90;;;18.46;100.00;98303.16;5075144;28;21008;-77
2023/08/17 01:10:12;;;;;;;3.90;1.70;;;17.50;99.90;;;18.43;100.00;98304.41;5074045;28;20460;-77
2023/08/17 01:12:53;;;;;;;2.60;1.73;;;17.50;99.90;;;18.45;100.00;98304.19;5074136;28;20467;-78
2023/08/17 01:15:30;;;;;;;6.20;2.33;;;17.50;99.90;;;18.44;100.00;98298.09;5076824;28;20476;-78
2023/08/17 01:18:17;;;;;;;4.90;1.80;;;17.50;99.90;;;18.38;100.00;98296.38;5077189;28;20448;-77
2023/08/17 01:20:48;;;;;;;4.93;1.97;;;17.60;99.90;;;18.39;100.00;98297.19;5075541;28;20472;-78
2023/08/17 01:23:20;;;;;;;1.50;1.33;;;17.60;99.90;;;18.40;100.00;98291.63;5072920;28;20468;-77
2023/08/17 01:25:53;;;;;;;4.60;3.40;;;17.40;99.90;;;18.40;100.00;98294.28;5076465;28;20456;-78
2023/08/17 01:28:23;;;;;;;3.17;1.63;;;17.30;99.90;;;18.40;100.00;98293.47;5076187;28;20499;-77
2023/08/17 01:31:01;;;;;;;5.30;1.93;;;17.30;99.90;;;18.32;100.00;98291.19;5076015;28;20467;-78
2023/08/17 01:33:41;;;;;;;1.73;1.50;;;17.20;99.90;;;18.29;100.00;98284.50;5075208;28;21497;-77
2023/08/17 01:36:20;;;;;;;8.83;1.80;;;17.30;99.90;;;18.27;100.00;98291.88;5074760;28;21150;-77
2023/08/17 01:38:57;;;;;;;1.60;1.50;;;17.30;99.90;;;18.29;100.00;98287.13;5076113;28;21047;-77
2023/08/17 01:41:28;;;;;;;1.77;1.60;;;17.40;99.90;;;18.30;100.00;98293.25;5075660;28;20459;-78
2023/08/17 01:44:00;;;;;;;8.77;1.83;;;17.30;99.90;;;18.25;100.00;98290.50;5077621;28;20460;-77
2023/08/17 01:46:34;;;;;;;2.73;1.73;;;17.50;99.90;;;18.21;100.00;98281.41;5075468;28;20560;-77
2023/08/17 01:49:05;;;;;;;9.23;2.13;;;17.30;99.90;;;18.21;100.00;98284.84;5076310;28;20460;-77
2023/08/17 01:51:35;;;;;;;6.43;2.10;;;17.30;99.90;;;18.09;100.00;98281.38;5075839;28;20546;-77
2023/08/17 01:54:08;;;;;;;6.33;1.90;;;17.40;99.90;;;18.13;100.00;98279.09;5076579;28;20882;-77
2023/08/17 01:56:39;;;;;;;1.70;1.60;;;17.30;99.90;;;18.07;100.00;98278.97;5077152;28;20455;-77
2023/08/17 01:59:09;;;;;;;3.47;1.60;;;17.40;99.90;;;18.05;100.00;98273.09;5076165;28;20456;-77
2023/08/17 02:01:38;;;;;;;2.30;1.60;;;17.30;99.90;;;18.09;100.00;98284.84;5074593;28;20834;-77
2023/08/17 02:04:09;;;;;;;1.57;1.27;;;17.20;99.90;;;18.02;100.00;98281.50;5076777;28;20949;-78
2023/08/17 02:06:39;;;;;;;5.13;1.73;;;17.10;99.90;;;17.93;100.00;98277.59;5076933;28;20838;-77
2023/08/17 02:09:12;;;;;;;6.20;1.70;;;17.10;99.90;;;17.97;100.00;98280.56;5076590;28;20559;-78
2023/08/17 02:11:42;;;;;;;3.63;1.50;;;17.00;99.90;;;17.97;100.00;98278.75;5074253;28;20471;-78
2023/08/17 02:14:12;;;;;;;3.70;1.57;;;17.00;99.90;;;17.93;100.00;98277.59;5076018;28;20471;-78
2023/08/17 02:16:42;;;;;;;7.10;1.90;;;17.00;99.90;;;17.93;100.00;98287.34;5075676;28;20473;-78
2023/08/17 02:19:12;;;;;;;6.40;1.97;;;17.00;99.90;;;17.92;100.00;98285.72;5075010;28;20452;-78
2023/08/17 02:21:43;;;;;;;5.10;1.63;;;17.10;99.90;;;17.87;100.00;98282.97;5073865;28;20456;-78
2023/08/17 02:24:15;;;;;;;3.50;1.67;;;17.10;99.90;;;17.86;100.00;98274.22;5071356;28;20547;-75
2023/08/17 02:26:45;;;;;;;6.50;1.90;;;17.10;99.90;;;17.89;100.00;98278.25;5074345;28;20490;-77
2023/08/17 02:29:17;;;;;;;4.53;2.23;;;17.00;99.90;;;17.90;100.00;98277.22;5074746;28;20577;-78
2023/08/17 02:31:47;;;;;;;3.60;2.17;;;16.90;99.90;;;17.87;100.00;98277.69;5074219;28;20564;-78
2023/08/17 02:34:17;;;;;;;5.10;2.00;;;16.90;99.90;;;17.90;100.00;98266.66;5075269;28;20569;-77
2023/08/17 02:36:45;;;;;;;8.90;2.20;;;17.00;99.90;;;17.90;100.00;98271.94;5075697;28;20460;-77
2023/08/17 02:39:17;;;;;;;5.70;2.03;;;17.00;99.90;;;17.91;100.00;98273.56;5076167;28;21052;-77
2023/08/17 02:41:49;;;;;;;8.50;1.70;;;16.90;99.90;;;17.92;100.00;98275.16;5076738;28;20464;-77
2023/08/17 02:44:19;;;;;;;3.83;1.70;;;16.90;99.90;;;17.90;100.00;98279.88;5076412;28;20459;-77
2023/08/17 02:46:48;;;;;;;2.13;1.93;;;17.00;99.90;;;17.85;100.00;98269.16;5074921;28;20468;-78
2023/08/17 02:49:20;;;;;;;2.87;1.90;;;17.00;99.90;;;17.88;100.00;98271.34;5076049;28;20545;-77
2023/08/17 02:51:50;;;;;;;12.97;1.83;;;17.00;99.90;;;17.86;100.00;98281.34;5073130;28;20755;-78
2023/08/17 02:54:21;;;;;;;4.40;2.03;;;17.00;99.90;;;17.84;100.00;98278.16;5074871;28;20488;-77
2023/08/17 02:56:51;;;;;;;5.03;2.03;;;17.00;99.90;;;17.75;100.00;98275.00;5073896;28;20544;-78
2023/08/17 02:59:19;;;;;;;2.37;2.00;;;17.10;99.90;;;17.67;100.00;98274.53;5076034;28;20483;-78
2023/08/17 03:01:48;;;;;;;6.03;1.93;;;17.00;99.90;;;17.65;100.00;98272.13;5074699;28;21012;-78
2023/08/17 03:04:18;;;;;;;4.10;1.47;;;16.90;99.90;;;17.62;100.00;98264.63;5075596;28;20494;-78
2023/08/17 03:06:47;;;;;;;13.00;1.97;;;16.90;99.90;;;17.70;100.00;98274.09;5074000;28;20491;-77
2023/08/17 03:09:16;;;;;;;1.93;1.73;;;16.90;99.90;;;17.76;100.00;98275.81;5075713;28;20460;-77
2023/08/17 03:11:47;;;;;;;6.90;2.03;;;16.90;99.90;;;17.81;100.00;98268.00;5074431;28;20455;-82
2023/08/17 03:14:16;;;;;;;2.50;2.03;;;16.90;99.90;;;17.81;100.00;98270.63;5073675;28;21053;-77
2023/08/17 03:16:46;;;;;;;8.60;1.97;;;16.90;99.90;;;17.83;100.00;98265.94;5074296;28;20509;-77
2023/08/17 03:19:17;;;;;;;1.73;1.63;;;16.90;99.90;;;17.83;100.00;98263.31;5069993;28;20830;-80
2023/08/17 03:21:47;;;;;;;4.07;1.80;;;16.80;99.90;;;17.81;100.00;98268.00;5069639;28;20456;-78
2023/08/17 03:24:17;;;;;;;2.40;1.90;;;16.90;99.90;;;17.79;100.00;98264.78;5072080;28;20459;-78
2023/08/17 03:26:47;;;;;;;4.60;2.13;;;17.00;99.90;;;17.78;100.00;98263.16;5073342;28;20855;-78
2023/08/17 03:29:17;;;;;;;9.73;1.87;;;17.00;99.90;;;17.74;100.00;98257.53;5071391;28;20466;-78
2023/08/17 03:31:49;;;;;;;2.50;1.60;;;17.00;99.90;;;17.71;100.00;98257.16;5069649;28;20466;-83
2023/08/17 03:34:19;;;;;;;8.60;2.20;;;16.90;99.90;;;17.74;100.00;98259.34;5073506;28;20483;-79
2023/08/17 03:36:49;;;;;;;4.67;1.70;;;17.00;99.90;;;17.75;100.00;98261.78;5074649;28;20459;-78
2023/08/17 03:39:17;;;;;;;2.10;1.67;;;17.00;99.90;;;17.79;100.00;98259.50;5074119;28;20996;-78
2023/08/17 03:41:48;;;;;;;6.70;1.80;;;17.00;99.90;;;17.81;100.00;98262.69;5076567;28;20456;-78
2023/08/17 03:44:17;;;;;;;3.10;1.70;;;17.00;99.90;;;17.83;100.00;98258.00;5075302;28;20524;-78
2023/08/17 03:46:47;;;;;;;6.17;1.77;;;17.00;99.90;;;17.79;100.00;98259.50;5073016;28;20462;-79
2023/08/17 03:49:16;;;;;;;4.30;1.50;;;17.00;99.90;;;17.76;100.00;98258.13;5075686;28;20492;-78
2023/08/17 03:51:46;;;;;;;4.03;1.87;;;17.00;99.90;;;17.78;100.00;98257.88;5072736;28;20467;-79
2023/08/17 03:54:19;;;;;;;4.13;1.60;;;17.00;99.90;;;17.75;100.00;98264.44;5077039;28;20459;-78
2023/08/17 03:56:50;;;;;;;7.30;2.37;;;17.00;99.90;;;17.72;100.00;98261.44;5073902;28;20458;-78
2023/08/17 03:59:20;;;;;;;6.60;2.00;;;17.00;99.90;;;17.66;100.00;98260.50;5076313;28;20464;-78
2023/08/17 04:01:52;;;;;;;1.70;1.57;;;17.10;99.90;;;17.64;100.00;98267.03;5071506;28;21046;-79
2023/08/17 04:04:22;;;;;;;2.60;2.03;;;17.10;99.90;;;17.61;100.00;98273.59;5072795;28;20545;-83
2023/08/17 04:06:53;;;;;;;2.23;2.00;;;17.10;99.90;;;17.62;100.00;98272.56;5070630;28;20483;-78
2023/08/17 04:09:22;;;;;;;8.40;2.60;;;17.10;99.90;;;17.63;100.00;98266.25;5073803;28;20471;-79
2023/08/17 04:11:57;;;;;;;4.13;2.60;;;17.10;99.90;;;17.66;100.00;98272.94;5074243;28;20550;-79
2023/08/17 04:14:27;;;;;;;8.23;2.37;;;17.00;99.90;;;17.75;100.00;98276.84;5072840;28;20469;-78
2023/08/17 04:16:57;;;;;;;7.73;2.70;;;17.00;99.90;;;17.79;100.00;98278.00;5077869;28;20462;-79
2023/08/17 04:19:28;;;;;;;9.70;3.10;;;17.00;99.90;;;17.81;100.00;98275.94;5077447;28;20459;-79
2023/08/17 04:21:58;;;;;;;6.30;2.93;;;17.10;99.90;;;17.78;100.00;98279.03;5074774;28;20882;-79
2023/08/17 04:24:28;;;;;;;4.73;3.00;;;17.10;99.90;;;17.76;100.00;98281.13;5077663;28;20552;-79
2023/08/17 04:26:59;;;;;;;20.93;3.50;;;17.10;99.90;;;17.70;100.00;98284.66;5075142;28;20463;-79
2023/08/17 04:29:29;;;;;;;8.03;2.80;;;17.10;99.90;;;17.67;100.00;98283.25;5072894;28;20470;-78
2023/08/17 04:32:00;;;;;;;9.23;2.83;;;17.10;99.90;;;17.70;100.00;98292.59;5073882;28;20471;-82
2023/08/17 04:34:31;;;;;;;8.07;2.57;;;17.00;99.90;;;17.67;100.00;98287.78;5072569;28;20464;-79
2023/08/17 04:37:02;;;;;;;3.80;2.10;;;17.00;99.90;;;17.66;100.00;98286.16;5071355;28;20477;-79
2023/08/17 04:39:31;;;;;;;3.57;2.33;;;16.90;99.90;;;17.67;100.00;98277.19;5073941;28;20452;-79
2023/08/17 04:42:02;;;;;;;9.87;3.37;;;16.90;99.90;;;17.70;100.00;98284.66;5074819;28;20540;-79
2023/08/17 04:44:33;;;;;;;6.70;2.80;;;16.90;99.90;;;17.70;100.00;98289.97;5077965;28;20470;-79
2023/08/17 04:47:02;;;;;;;10.90;2.80;;;16.90;99.90;;;17.71;100.00;98288.91;5078619;28;20467;-79
2023/08/17 04:49:32;;;;;;;11.60;3.10;;;16.90;99.90;;;17.74;100.00;98289.25;5077967;28;20506;-78
2023/08/17 04:52:02;;;;;;;6.70;3.10;;;16.90;99.90;;;17.77;100.00;98283.50;5077432;28;20942;-78
2023/08/17 04:54:32;;;;;;;4.73;3.13;;;16.90;99.90;;;17.80;100.00;98288.38;5078403;28;20501;-79
2023/08/17 04:57:05;;;;;;;11.03;3.00;;;17.00;99.90;;;17.81;100.00;98297.09;5080176;28;20546;-79
2023/08/17 04:59:36;;;;;;;8.00;3.30;;;17.00;99.90;;;17.82;100.00;98296.06;5077909;28;20567;-79
2023/08/17 05:02:06;;;;;;;10.47;3.13;;;17.00;99.90;;;17.85;100.00;98301.72;5077667;28;21477;-79
2023/08/17 05:04:37;;;;;;;8.40;2.73;;;16.90;99.90;;;17.86;100.00;98297.25;5079304;28;20490;-79
2023/08/17 05:07:08;;;;;;;12.47;3.03;;;17.00;99.90;;;17.86;100.00;98291.94;5078635;28;20491;-78
2023/08/17 05:09:38;;;;;;;9.90;3.40;;;17.00;99.90;;;17.83;100.00;98290.56;5076848;28;20486;-80
2023/08/17 05:12:11;;;;;;;6.13;3.07;;;17.10;99.90;;;17.86;100.00;98298.03;5077288;28;20471;-79
2023/08/17 05:14:40;;;;;;;12.30;3.10;;;17.10;99.90;;;17.91;100.00;98300.03;5077672;28;20489;-79
2023/08/17 05:17:10;;;;;;;7.03;3.03;;;17.10;99.90;;;17.92;100.00;98291.84;5077873;28;20591;-79
2023/08/17 05:19:41;;;;;;;3.50;2.80;;;17.00;99.90;;;17.95;100.00;98296.66;5077047;28;20506;-79
2023/08/17 05:22:14;;;;;;;11.37;3.60;;;17.10;99.90;;;17.92;100.00;98291.84;5077483;28;20548;-79
2023/08/17 05:24:45;;;;;;;5.80;2.67;;;17.10;99.90;;;17.87;100.00;98299.66;5077469;28;21100;-79
2023/08/17 05:27:18;;;;;;;6.40;2.73;;;17.10;99.90;;;17.88;100.00;98292.50;5079009;28;20471;-78
2023/08/17 05:29:47;;;;;;;9.67;2.67;;;17.10;99.90;;;17.92;100.00;98294.47;5075518;28;20537;-79
2023/08/17 05:32:17;;;;;;;4.20;2.87;;;17.10;99.90;;;17.97;100.00;98293.81;5078377;28;20463;-79
2023/08/17 05:34:48;;;;;;;4.70;2.80;;;17.10;99.90;;;18.00;100.00;98303.94;5078464;28;20464;-78
2023/08/17 05:37:17;;;;;;;5.87;2.90;;;17.10;99.90;;;18.00;100.00;98310.03;5077208;28;20490;-78
2023/08/17 05:39:47;;;;;;;3.90;2.70;;;17.10;99.90;;;18.06;100.00;98313.59;5075483;28;20468;-80
2023/08/17 05:42:19;;;;;;;3.00;2.13;;;17.10;99.90;;;18.09;100.00;98318.44;5077160;28;20510;-78
2023/08/17 05:44:48;;;;;;;2.30;2.00;;;17.20;99.90;;;18.07;100.00;98312.59;5077689;28;20475;-79
2023/08/17 05:47:19;;;;;;;4.13;2.27;;;17.30;99.90;;;18.03;100.00;98311.41;5078137;28;20463;-78
2023/08/17 05:49:49;;;;;;;6.87;2.00;;;17.20;99.90;;;18.02;100.00;98313.25;5078887;28;20558;-78
2023/08/17 05:52:19;;;;;;;2.07;1.63;;;17.10;99.90;;;18.04;100.00;98313.03;5076742;28;20461;-79
2023/08/17 05:54:50;;;;;;;1.90;1.70;;;17.10;99.90;;;18.10;100.00;98315.56;5079202;28;20448;-79
2023/08/17 05:57:22;;;;;;;3.67;2.57;;;17.20;99.90;;;18.15;100.00;98317.53;5077500;28;20484;-79
2023/08/17 05:59:53;;;;;;;3.17;2.33;;;17.20;99.90;;;18.20;100.00;98320.31;5077293;28;20949;-79
2023/08/17 06:02:23;;;;;;;2.77;2.37;;;17.30;99.90;;;18.24;100.00;98331.25;5079428;28;20471;-79
2023/08/17 06:04:52;;;;;;;3.37;2.60;;;17.30;99.90;;;18.30;100.00;98319.72;5078694;28;20472;-79
2023/08/17 06:07:22;;;;;;;4.73;2.70;;;17.40;99.90;;;18.35;100.00;98325.97;5079818;28;21563;-78
2023/08/17 06:09:53;;;;;;;4.00;2.97;;;17.50;99.90;;;18.38;100.00;98324.69;5077798;28;20962;-78
2023/08/17 06:12:24;;;;;;;3.93;2.43;;;17.40;99.90;;;18.41;100.00;98322.38;5078577;28;20471;-79
2023/08/17 06:14:55;;;;;;;3.80;2.50;;;17.50;99.90;;;18.42;100.00;98321.38;5079192;28;20996;-80
2023/08/17 06:17:25;;;;;;;2.60;2.20;;;17.50;99.90;;;18.44;100.00;98319.28;5079671;28;21199;-79
2023/08/17 06:19:56;;;;;;;3.07;2.50;;;17.60;99.90;;;18.44;100.00;98316.63;5075265;28;20452;-78
2023/08/17 06:22:26;;;;;;;6.00;2.40;;;17.60;99.90;;;18.49;100.00;98326.53;5078550;28;20467;-79
2023/08/17 06:24:55;;;;;;;5.07;2.80;;;17.50;99.90;;;18.52;100.00;98318.97;5078905;28;20487;-79
2023/08/17 06:27:27;;;;;;;3.53;2.43;;;17.70;99.90;;;18.53;100.00;98317.91;5079010;28;20965;-79
2023/08/17 06:29:59;;;;;;;5.97;2.00;;;17.60;99.90;;;18.54;100.00;98318.72;5077429;28;20999;-79
2023/08/17 06:32:29;;;;;;;2.60;2.20;;;17.60;99.90;;;18.54;100.00;98318.72;5076743;28;20591;-79
2023/08/17 06:35:00;;;;;;;3.57;1.90;;;17.60;99.90;;;18.64;100.00;98326.13;5075722;28;20456;-78
2023/08/17 06:37:29;;;;;;;4.20;2.00;;;17.70;99.90;;;18.70;100.00;98320.69;5075566;28;20491;-79
2023/08/17 06:39:59;;;;;;;3.23;1.97;;;17.80;99.90;;;18.77;100.00;98320.56;5076318;28;20459;-78
2023/08/17 06:42:30;;;;;;;3.30;2.87;;;17.80;99.90;;;18.80;100.00;98328.84;5077484;28;20464;-80
2023/08/17 06:45:00;;;;;;;4.30;2.77;;;17.90;99.90;;;18.82;100.00;98333.91;5076301;28;20471;-79
2023/08/17 06:47:29;;;;;;;4.27;2.80;;;18.00;99.90;;;18.86;100.00;98330.56;5075106;28;20464;-79
2023/08/17 06:50:00;;;;;;;4.43;2.90;;;18.00;99.90;;;18.90;100.00;98330.91;5077604;28;20456;-79
2023/08/17 06:52:29;;;;;;;6.47;4.13;;;18.10;99.90;;;18.90;100.00;98331.72;5076469;28;20455;-79
2023/08/17 06:54:58;;;;;;;6.00;4.43;;;18.10;99.90;;;18.93;100.00;98327.78;5076744;28;20992;-79
2023/08/17 06:57:30;;;;;;;5.47;3.17;;;18.10;99.90;;;18.97;100.00;98319.16;5075804;28;20553;-79
2023/08/17 07:00:00;;;;;;;5.20;3.13;;;18.10;99.90;;;19.01;100.00;98322.13;5079649;28;20456;-79
2023/08/17 07:02:31;;;;;;;6.67;3.80;;;18.10;99.90;;;19.02;100.00;98323.75;5077150;28;20576;-79
2023/08/17 07:05:19;;;;;;;6.63;4.20;;;18.30;99.90;;;19.08;100.00;98328.94;5075385;28;20475;-79
2023/08/17 07:07:49;;;;;;;6.90;4.53;;;18.40;99.90;;;19.11;100.00;98327.66;5078234;28;20857;-79
2023/08/17 07:10:18;;;;;;;6.17;4.33;;;18.30;99.90;;;19.18;100.00;98328.31;5076825;28;20469;-79
2023/08/17 07:12:49;;;;;;;7.27;4.50;;;18.40;99.90;;;19.21;100.00;98327.84;5078621;28;20824;-79
2023/08/17 07:15:18;;;;;;;6.47;4.40;;;18.40;99.90;;;19.29;100.00;98338.09;5077791;28;20473;-79
2023/08/17 07:17:49;;;;;;;8.83;5.60;;;18.40;99.90;;;19.32;100.00;98334.97;5079699;28;20506;-79
2023/08/17 07:20:18;;;;;;;7.87;5.10;;;18.40;99.90;;;19.36;100.00;98341.41;5078726;28;20931;-79
2023/08/17 07:22:47;;;;;;;9.13;5.50;;;18.50;99.90;;;19.38;100.00;98336.66;5076559;28;20459;-79
2023/08/17 07:25:17;;;;;;;8.30;5.00;;;18.50;99.90;;;19.44;100.00;98348.19;5074829;28;20537;-79
2023/08/17 07:27:48;;;;;;;11.53;6.27;;;18.60;99.90;;;19.51;100.00;98343.56;5074871;28;20499;-79
2023/08/17 07:30:18;;;;;;;6.70;5.00;;;18.70;99.90;;;19.55;100.00;98340.22;5078534;28;20828;-79
2023/08/17 07:32:47;;;;;;;8.23;5.10;;;18.70;99.90;;;19.63;100.00;98346.19;5075950;28;20456;-79
2023/08/17 07:35:18;;;;;;;8.50;6.10;;;18.80;99.90;;;19.59;100.00;98349.31;5076650;28;21054;-79
2023/08/17 07:37:48;;;;;;;9.83;6.13;;;18.90;99.90;;;19.64;100.00;98345.16;5077204;28;20511;-79
2023/08/17 07:40:32;;;;;;;11.63;6.40;;;18.90;99.90;;;19.70;100.00;98330.91;5074515;28;20499;-79
2023/08/17 07:43:03;;;;;;;8.27;5.93;;;18.90;99.90;;;19.76;100.00;98319.34;5075988;28;20459;-79
2023/08/17 07:45:33;;;;;;;9.80;6.97;;;18.90;99.90;;;19.76;100.00;98319.34;5076472;28;20459;-79
2023/08/17 07:48:03;;;;;;;8.70;6.03;;;19.10;99.90;;;19.77;100.00;98318.31;5076770;28;20547;-79
2023/08/17 07:50:34;;;;;;;11.10;6.40;;;19.10;99.90;;;19.79;100.00;98313.56;5081074;28;20565;-79
2023/08/17 07:53:05;;;;;;;8.50;5.23;;;19.00;99.90;;;19.81;100.00;98312.28;5080978;28;21015;-79
2023/08/17 07:55:36;;;;;;;11.80;5.90;;;19.00;99.90;;;19.84;100.00;98313.66;5080574;28;20463;-79
2023/08/17 07:58:07;;;;;;;8.40;5.90;;;19.10;99.90;;;19.82;100.00;98316.53;5079795;28;20537;-78
2023/08/17 08:00:37;;;;;;;10.23;6.00;;;19.10;99.90;;;19.82;100.00;98311.22;5079987;28;21108;-79
2023/08/17 08:03:08;;;;;;;8.50;5.97;;;19.10;99.90;;;19.82;100.00;98319.19;5080723;28;20543;-79
2023/08/17 08:05:37;;;;;;;8.00;5.93;;;19.10;99.90;;;19.79;100.00;98313.56;5079353;28;20479;-79
2023/08/17 08:08:08;;;;;;;7.83;5.73;;;19.10;99.90;;;19.76;100.00;98308.72;5081717;28;20460;-79
2023/08/17 08:10:38;;;;;;;8.37;5.63;;;19.00;99.90;;;19.78;100.00;98320.72;5081079;28;21042;-78
2023/08/17 08:13:10;;;;;;;8.63;6.40;;;19.10;99.90;;;19.85;100.00;98307.31;5078951;28;20464;-78
2023/08/17 08:15:39;;;;;;;6.33;4.97;;;19.10;99.90;;;19.92;100.00;98315.94;5079873;28;20476;-79
2023/08/17 08:18:10;;;;;;;9.60;5.27;;;19.20;99.90;;;19.96;100.00;98317.03;5078346;28;20496;-78
2023/08/17 08:20:40;;;;;;;6.73;5.07;;;19.30;99.90;;;20.02;100.00;98318.75;5078792;28;20464;-78
2023/08/17 08:23:11;;;;;;;10.17;4.93;;;19.30;99.90;;;19.99;100.00;98308.59;5079983;28;20864;-79
2023/08/17 08:25:42;;;;;;;6.50;4.63;;;19.30;99.90;;;20.07;100.00;98305.53;5078733;28;20464;-79
2023/08/17 08:28:13;;;;;;;8.30;5.03;;;19.30;99.90;;;20.09;100.00;98304.28;5079288;28;20487;-79
2023/08/17 08:30:43;;;;;;;6.57;4.53;;;19.40;99.90;;;20.09;100.00;98306.13;5080254;28;20508;-79
2023/08/17 08:33:13;;;;;;;10.40;4.53;;;19.50;99.90;;;20.12;100.00;98313.59;5077493;28;20460;-78
2023/08/17 08:35:44;;;;;;;8.43;4.73;;;19.50;99.90;;;20.14;100.00;98308.84;5077257;28;20925;-80
2023/08/17 08:38:16;;;;;;;5.30;4.20;;;19.50;99.90;;;20.15;100.00;98313.09;5077518;28;20558;-78
2023/08/17 08:40:48;;;;;;;7.73;4.60;;;19.40;99.90;;;20.13;100.00;98299.28;5079592;28;20459;-78
2023/08/17 08:43:20;;;;;;;6.67;3.63;;;19.40;99.90;;;20.17;100.00;98305.69;5079055;28;20464;-78
2023/08/17 08:45:52;;;;;;;4.70;3.50;;;19.40;99.90;;;20.16;100.00;98297.97;5080962;28;20459;-78
2023/08/17 08:48:27;;;;;;;6.20;4.63;;;19.50;99.90;;;20.18;100.00;98299.34;5081174;28;20730;-79
2023/08/17 08:51:00;;;;;;;4.77;3.73;;;19.50;99.90;;;20.21;100.00;98290.88;5078845;28;20463;-78
2023/08/17 08:53:39;;;;;;;4.93;3.63;;;19.40;99.90;;;20.22;100.00;98289.84;5079092;28;20554;-79
2023/08/17 08:56:13;;;;;;;5.50;3.70;;;19.40;99.90;;;20.25;100.00;98292.00;5080540;28;20900;-78
2023/08/17 08:58:46;;;;;;;4.87;3.70;;;19.50;99.90;;;20.29;100.00;98293.19;5081060;28;20486;-79
2023/08/17 09:01:23;;;;;;;4.43;2.93;;;19.50;99.90;;;20.32;100.00;98294.53;5079347;28;20537;-79
2023/08/17 09:03:55;;;;;;;6.40;3.80;;;19.50;99.90;;;20.37;100.00;98294.63;5081537;28;20535;-80
2023/08/17 09:06:29;;;;;;;6.27;4.10;;;19.60;99.90;;;20.40;100.00;98288.81;5079821;28;20467;-79
2023/08/17 09:09:02;;;;;;;6.93;3.67;;;19.70;99.90;;;20.42;100.00;98287.53;5082027;28;20949;-79
2023/08/17 09:11:32;;;;;;;4.20;3.40;;;19.70;99.90;;;20.47;100.00;98279.63;5079074;28;20503;-79
2023/08/17 09:14:03;;;;;;;4.70;3.53;;;19.70;99.90;;;20.49;100.00;98277.53;5078267;28;20503;-79
2023/08/17 09:16:33;;;;;;;3.77;3.00;;;19.70;99.90;;;20.54;100.00;98274.94;5078507;28;20472;-79
2023/08/17 09:19:03;;;;;;;5.57;3.43;;;19.80;99.90;;;20.59;100.00;98271.53;5076277;28;21111;-78
2023/08/17 09:21:33;;;;;;;4.30;3.70;;;19.90;99.90;;;20.59;100.00;98269.69;5076981;28;20464;-79
2023/08/17 09:24:04;;;;;;;6.10;3.83;;;19.80;99.90;;;20.67;100.00;98275.63;5075040;28;20868;-79
2023/08/17 09:26:34;;;;;;;3.63;3.00;;;19.90;99.90;;;20.71;100.00;98276.75;5077537;28;20459;-79
2023/08/17 09:29:18;;;;;;;3.70;2.93;;;19.90;99.90;;;20.74;100.00;98273.59;5077937;28;20844;-79
2023/08/17 09:31:49;;;;;;;4.57;3.33;;;20.00;99.90;;;20.80;100.00;98273.41;5076431;28;20468;-79
2023/08/17 09:34:21;;;;;;;5.37;3.70;;;20.10;99.90;;;20.84;100.00;98279.84;5077354;28;20463;-79
2023/08/17 09:36:50;;;;;;;3.90;3.17;;;20.10;99.90;;;20.90;100.00;98278.03;5077540;28;20467;-78
2023/08/17 09:39:21;;;;;;;3.23;2.40;;;20.20;99.90;;;20.96;100.00;98277.06;5078959;28;20502;-79
2023/08/17 09:41:51;;;;;;;3.97;3.07;;;20.20;99.90;;;20.99;100.00;98276.56;5078822;28;20459;-79
2023/08/17 09:44:23;;;;;;;2.93;2.60;;;20.20;99.90;;;21.04;100.00;98280.09;5079378;28;20487;-79
2023/08/17 09:46:55;;;;;;;3.10;2.50;;;20.30;99.90;;;21.08;100.00;98272.41;5077767;28;21176;-78
2023/08/17 09:49:25;;;;;;;4.07;2.93;;;20.30;99.90;;;21.10;100.00;98273.03;5078354;28;20895;-79
2023/08/17 09:51:59;;;;;;;4.70;3.03;;;20.30;99.90;;;21.15;100.00;98272.25;5078680;28;20483;-79
2023/08/17 09:54:31;;;;;;;3.73;2.53;;;20.50;99.90;;;21.19;100.00;98271.53;5078566;28;20448;-78
2023/08/17 09:57:03;;;;;;;2.67;2.43;;;20.50;99.90;;;21.26;100.00;98280.09;5078039;28;20506;-78
2023/08/17 09:59:33;;;;;;;3.43;2.63;;;20.50;99.90;;;21.32;100.00;98273.78;5077096;28;20483;-80
2023/08/17 10:02:20;;;;;;;3.93;2.47;;;20.60;99.90;;;21.38;100.00;98272.00;5077244;28;21089;-79
2023/08/17 10:04:53;;;;;;;3.13;2.50;;;20.70;99.90;;;21.45;100.00;98268.06;5076718;28;20476;-78
2023/08/17 10:07:29;;;;;;;3.73;2.60;;;20.70;99.90;;;21.55;100.00;98270.81;5078696;28;20456;-79
2023/08/17 10:10:06;;;;;;;5.43;2.90;;;20.90;99.90;;;21.64;100.00;98267.72;5076390;28;20529;-79
2023/08/17 10:12:44;;;;;;;3.73;2.80;;;20.90;99.90;;;21.74;100.00;98275.78;5076925;28;20855;-79
2023/08/17 10:15:20;;;;;;;5.50;2.80;;;21.00;99.90;;;21.83;100.00;98274.28;5076358;28;20463;-78
2023/08/17 10:18:01;;;;;;;3.80;1.97;;;21.10;99.90;;;21.91;100.00;98268.50;5075720;28;20542;-79
2023/08/17 10:20:35;;;;;;;2.93;2.63;;;21.20;99.90;;;21.97;100.00;98272.84;5076887;28;20460;-79
2023/08/17 10:23:16;;;;;;;5.90;2.70;;;21.20;99.90;;;22.06;100.00;98272.09;5077097;28;20457;-79
2023/08/17 10:25:48;;;;;;;2.17;1.97;;;21.40;99.90;;;22.12;100.00;98266.78;5077672;28;20455;-78
2023/08/17 10:28:20;;;;;;;2.60;2.07;;;21.50;99.90;;;22.21;100.00;98276.75;5077794;28;20489;-78
2023/08/17 10:30:52;;;;;;;2.73;2.43;;;21.60;99.90;;;22.27;100.00;98273.06;5077006;28;20452;-78